createdAt,value
2014-11-20T00:00:26.025Z,32.99
2014-11-20T00:01:30.730Z,32.86
2014-11-20T00:02:35.372Z,32.72
2014-11-20T00:03:40.015Z,32.76
2014-11-20T00:04:44.643Z,33.03
2014-11-20T00:05:49.269Z,32.66
2014-11-20T00:06:53.916Z,32.85
2014-11-20T00:07:58.543Z,32.82
2014-11-20T00:09:03.185Z,32.66
2014-11-20T00:10:07.829Z,32.65
2014-11-20T00:11:12.455Z,32.96
2014-11-20T00:12:17.083Z,32.86
2014-11-20T00:13:21.710Z,32.79
2014-11-20T00:14:26.338Z,32.79
2014-11-20T00:15:30.965Z,32.85
2014-11-20T00:16:35.608Z,32.85
2014-11-20T00:17:40.251Z,32.98
2014-11-20T00:18:44.877Z,33.09
2014-11-20T00:19:49.506Z,32.83
2014-11-20T00:20:54.151Z,32.96
2014-11-20T00:21:58.778Z,33.06
2014-11-20T00:23:04.405Z,32.99
2014-11-20T00:24:09.033Z,32.93
2014-11-20T00:25:13.660Z,33.05
2014-11-20T00:26:18.318Z,32.99
2014-11-20T00:27:22.962Z,32.89
2014-11-20T00:28:27.589Z,32.86
2014-11-20T00:29:32.216Z,32.85
2014-11-20T00:30:36.859Z,32.98
2014-11-20T00:31:41.485Z,32.92
2014-11-20T00:32:46.113Z,32.99
2014-11-20T00:33:50.757Z,32.88
2014-11-20T00:34:55.386Z,32.83
2014-11-20T00:36:00.029Z,32.61
2014-11-20T00:37:04.703Z,32.86
2014-11-20T00:38:09.362Z,32.62
2014-11-20T00:39:13.989Z,32.72
2014-11-20T00:40:18.616Z,32.85
2014-11-20T00:41:23.244Z,33.09
2014-11-20T00:42:27.871Z,33.15
2014-11-20T00:43:32.576Z,33.05
2014-11-20T00:44:37.204Z,32.99
2014-11-20T00:45:41.831Z,33.13
2014-11-20T00:46:46.458Z,32.92
2014-11-20T00:47:51.086Z,32.98
2014-11-20T00:48:55.715Z,33.12
2014-11-20T00:50:00.373Z,32.85
2014-11-20T00:51:05.017Z,33.06
2014-11-20T00:52:09.644Z,32.85
2014-11-20T00:53:14.287Z,32.92
2014-11-20T00:54:18.914Z,32.85
2014-11-20T00:55:23.541Z,32.92
2014-11-20T00:56:28.168Z,32.62
2014-11-20T00:57:32.828Z,32.72
2014-11-20T00:58:37.456Z,32.88
2014-11-20T00:59:42.129Z,33.01
2014-11-20T01:00:46.772Z,32.99
2014-11-20T01:01:51.415Z,32.85
2014-11-20T01:02:56.045Z,32.85
2014-11-20T01:04:00.672Z,32.72
2014-11-20T01:05:05.346Z,32.55
2014-11-20T01:06:09.974Z,32.85
2014-11-20T01:07:14.913Z,33.05
2014-11-20T01:08:19.556Z,33.05
2014-11-20T01:09:24.184Z,32.79
2014-11-20T01:10:28.811Z,32.78
2014-11-20T01:11:32.751Z,32.76
2014-11-20T01:12:37.377Z,32.71
2014-11-20T01:13:42.021Z,32.64
2014-11-20T01:14:46.648Z,32.82
2014-11-20T01:15:51.275Z,33.01
2014-11-20T01:16:55.917Z,32.88
2014-11-20T01:18:00.547Z,32.75
2014-11-20T01:19:05.471Z,32.61
2014-11-20T01:20:10.146Z,32.66
2014-11-20T01:21:14.774Z,32.92
2014-11-20T01:22:19.713Z,32.78
2014-11-20T01:23:24.341Z,32.78
2014-11-20T01:24:28.968Z,32.88
2014-11-20T01:25:33.610Z,32.85
2014-11-20T01:26:38.237Z,32.71
2014-11-20T01:27:42.928Z,32.74
2014-11-20T01:28:47.570Z,32.85
2014-11-20T01:29:52.230Z,32.85
2014-11-20T01:30:56.857Z,32.92
2014-11-20T01:32:01.487Z,32.86
2014-11-20T01:33:06.114Z,32.84
2014-11-20T01:34:10.756Z,32.95
2014-11-20T01:35:15.383Z,32.86
2014-11-20T01:36:20.011Z,32.78
2014-11-20T01:37:24.638Z,32.82
2014-11-20T01:38:29.282Z,32.51
2014-11-20T01:39:33.908Z,32.78
2014-11-20T01:40:38.552Z,32.71
2014-11-20T01:41:43.194Z,32.92
2014-11-20T01:42:47.822Z,32.91
2014-11-20T01:43:52.449Z,32.88
2014-11-20T01:44:57.076Z,32.99
2014-11-20T01:46:01.768Z,32.85
2014-11-20T01:47:06.271Z,32.85
2014-11-20T01:48:10.914Z,32.78
2014-11-20T01:49:15.541Z,32.85
2014-11-20T01:50:20.184Z,32.84
2014-11-20T01:51:24.905Z,32.91
2014-11-20T01:52:29.532Z,32.99
2014-11-20T01:53:34.160Z,32.79
2014-11-20T01:54:38.787Z,32.78
2014-11-20T01:55:43.429Z,32.71
2014-11-20T01:56:48.119Z,32.95
2014-11-20T01:57:52.747Z,32.92
2014-11-20T01:58:57.390Z,32.78
2014-11-20T02:00:02.035Z,32.85
2014-11-20T02:01:06.662Z,32.85
2014-11-20T02:02:11.290Z,32.88
2014-11-20T02:03:15.917Z,32.95
2014-11-20T02:04:20.544Z,32.92
2014-11-20T02:05:25.171Z,32.92
2014-11-20T02:06:29.815Z,32.78
2014-11-20T02:07:34.442Z,32.69
2014-11-20T02:08:39.101Z,32.58
2014-11-20T02:09:43.744Z,32.61
2014-11-20T02:10:48.371Z,32.72
2014-11-20T02:11:52.999Z,32.58
2014-11-20T02:12:57.657Z,32.85
2014-11-20T02:14:02.458Z,32.91
2014-11-20T02:15:07.086Z,32.65
2014-11-20T02:16:11.728Z,32.72
2014-11-20T02:17:16.371Z,32.65
2014-11-20T02:18:20.999Z,32.72
2014-11-20T02:19:25.626Z,32.64
2014-11-20T02:20:30.254Z,32.65
2014-11-20T02:21:34.897Z,32.78
2014-11-20T02:22:39.524Z,32.71
2014-11-20T02:23:44.151Z,32.85
2014-11-20T02:24:48.778Z,32.68
2014-11-20T02:25:53.421Z,32.58
2014-11-20T02:26:58.095Z,32.48
2014-11-20T02:28:02.866Z,32.51
2014-11-20T02:29:07.493Z,32.64
2014-11-20T02:30:12.120Z,32.78
2014-11-20T02:31:16.747Z,32.78
2014-11-20T02:32:21.390Z,32.78
2014-11-20T02:33:26.017Z,32.58
2014-11-20T02:34:30.661Z,32.47
2014-11-20T02:35:35.365Z,32.78
2014-11-20T02:36:39.993Z,32.65
2014-11-20T02:37:44.699Z,32.72
2014-11-20T02:38:49.326Z,32.85
2014-11-20T02:39:53.969Z,32.75
2014-11-20T02:40:58.721Z,32.65
2014-11-20T02:42:03.491Z,32.88
2014-11-20T02:43:08.119Z,32.71
2014-11-20T02:44:12.761Z,32.74
2014-11-20T02:45:17.389Z,32.95
2014-11-20T02:46:22.094Z,32.91
2014-11-20T02:47:26.737Z,32.94
2014-11-20T02:48:31.380Z,32.92
2014-11-20T02:49:36.007Z,32.81
2014-11-20T02:50:40.650Z,32.85
2014-11-20T02:51:45.684Z,32.75
2014-11-20T02:52:50.327Z,32.74
2014-11-20T02:53:54.954Z,32.78
2014-11-20T02:54:59.598Z,32.71
2014-11-20T02:56:04.227Z,32.72
2014-11-20T02:57:08.855Z,32.84
2014-11-20T02:58:13.482Z,32.88
2014-11-20T02:59:18.109Z,32.84
2014-11-20T03:00:22.737Z,32.71
2014-11-20T03:01:27.363Z,32.71
2014-11-20T03:02:32.006Z,32.78
2014-11-20T03:03:36.634Z,32.81
2014-11-20T03:04:41.260Z,33.04
2014-11-20T03:05:46.888Z,32.88
2014-11-20T03:06:51.515Z,32.92
2014-11-20T03:07:56.143Z,32.91
2014-11-20T03:09:00.770Z,32.98
2014-11-20T03:10:05.400Z,32.71
2014-11-20T03:11:10.043Z,32.57
2014-11-20T03:12:14.701Z,32.64
2014-11-20T03:13:19.328Z,32.58
2014-11-20T03:14:23.956Z,32.84
2014-11-20T03:15:28.583Z,32.84
2014-11-20T03:16:33.210Z,32.94
2014-11-20T03:17:37.837Z,32.75
2014-11-20T03:18:42.481Z,32.78
2014-11-20T03:19:47.108Z,32.57
2014-11-20T03:20:51.766Z,32.65
2014-11-20T03:21:56.394Z,32.78
2014-11-20T03:23:02.382Z,32.84
2014-11-20T03:24:07.010Z,32.71
2014-11-20T03:25:11.653Z,32.71
2014-11-20T03:26:16.280Z,32.71
2014-11-20T03:27:20.908Z,32.64
2014-11-20T03:28:25.551Z,32.57
2014-11-20T03:29:30.178Z,32.57
2014-11-20T03:30:35.102Z,32.71
2014-11-20T03:31:39.745Z,32.71
2014-11-20T03:32:44.372Z,32.77
2014-11-20T03:33:48.999Z,32.81
2014-11-20T03:34:53.627Z,32.84
2014-11-20T03:35:58.270Z,32.71
2014-11-20T03:37:02.915Z,32.71
2014-11-20T03:38:07.558Z,32.68
2014-11-20T03:39:12.186Z,32.64
2014-11-20T03:40:16.829Z,32.64
2014-11-20T03:41:21.752Z,32.64
2014-11-20T03:42:26.395Z,32.68
2014-11-20T03:43:31.023Z,32.78
2014-11-20T03:44:35.650Z,32.77
2014-11-20T03:45:40.293Z,32.64
2014-11-20T03:46:44.936Z,32.71
2014-11-20T03:47:49.563Z,32.68
2014-11-20T03:48:54.190Z,32.65
2014-11-20T03:49:58.817Z,32.64
2014-11-20T03:51:03.460Z,32.64
2014-11-20T03:52:08.090Z,32.57
2014-11-20T03:53:12.733Z,32.48
2014-11-20T03:54:17.376Z,32.44
2014-11-20T03:55:22.003Z,32.68
2014-11-20T03:56:26.631Z,32.55
2014-11-20T03:57:31.258Z,32.53
2014-11-20T03:58:35.886Z,32.51
2014-11-20T03:59:40.513Z,32.7
2014-11-20T04:00:45.155Z,32.64
2014-11-20T04:01:49.878Z,32.57
2014-11-20T04:02:54.505Z,32.64
2014-11-20T04:03:59.147Z,32.61
2014-11-20T04:05:03.775Z,32.44
2014-11-20T04:06:08.402Z,32.57
2014-11-20T04:07:13.029Z,32.57
2014-11-20T04:08:17.719Z,32.44
2014-11-20T04:09:22.347Z,32.57
2014-11-20T04:10:26.977Z,32.64
2014-11-20T04:11:31.619Z,32.51
2014-11-20T04:12:36.090Z,32.64
2014-11-20T04:13:40.734Z,32.63
2014-11-20T04:14:45.720Z,32.57
2014-11-20T04:15:50.363Z,32.6
2014-11-20T04:16:54.990Z,32.51
2014-11-20T04:17:59.618Z,32.5
2014-11-20T04:19:04.276Z,32.63
2014-11-20T04:20:08.919Z,32.71
2014-11-20T04:21:13.858Z,32.5
2014-11-20T04:22:18.486Z,32.87
2014-11-20T04:23:23.132Z,32.78
2014-11-20T04:24:27.774Z,32.57
2014-11-20T04:25:32.401Z,32.64
2014-11-20T04:26:37.028Z,32.7
2014-11-20T04:27:41.656Z,32.44
2014-11-20T04:28:46.283Z,32.44
2014-11-20T04:29:50.910Z,32.64
2014-11-20T04:30:55.538Z,32.7
2014-11-20T04:32:00.181Z,32.67
2014-11-20T04:33:05.028Z,32.54
2014-11-20T04:34:09.654Z,32.67
2014-11-20T04:35:14.281Z,32.57
2014-11-20T04:36:18.940Z,32.5
2014-11-20T04:37:23.586Z,32.7
2014-11-20T04:38:28.214Z,32.77
2014-11-20T04:39:32.841Z,32.74
2014-11-20T04:40:37.780Z,32.67
2014-11-20T04:41:42.407Z,32.73
2014-11-20T04:42:47.051Z,32.7
2014-11-20T04:43:51.678Z,32.71
2014-11-20T04:44:56.305Z,32.7
2014-11-20T04:46:00.932Z,32.64
2014-11-20T04:47:05.559Z,32.37
2014-11-20T04:48:10.187Z,32.53
2014-11-20T04:49:14.814Z,32.64
2014-11-20T04:50:19.754Z,32.64
2014-11-20T04:51:24.383Z,32.57
2014-11-20T04:52:29.026Z,32.57
2014-11-20T04:53:33.669Z,32.64
2014-11-20T04:54:38.296Z,32.63
2014-11-20T04:55:42.923Z,32.77
2014-11-20T04:56:47.863Z,32.71
2014-11-20T04:57:52.491Z,32.47
2014-11-20T04:58:57.118Z,32.51
2014-11-20T05:00:01.746Z,32.5
2014-11-20T05:01:06.389Z,32.47
2014-11-20T05:02:11.031Z,32.71
2014-11-20T05:03:15.658Z,32.76
2014-11-20T05:04:20.302Z,32.64
2014-11-20T05:05:24.946Z,32.64
2014-11-20T05:06:29.574Z,32.64
2014-11-20T05:07:34.201Z,32.63
2014-11-20T05:08:38.845Z,32.57
2014-11-20T05:09:43.488Z,32.6
2014-11-20T05:10:48.146Z,32.71
2014-11-20T05:11:52.789Z,32.43
2014-11-20T05:12:57.432Z,32.63
2014-11-20T05:14:02.106Z,32.71
2014-11-20T05:15:06.733Z,32.67
2014-11-20T05:16:11.361Z,32.43
2014-11-20T05:17:15.987Z,32.44
2014-11-20T05:18:20.615Z,32.46
2014-11-20T05:19:25.244Z,32.43
2014-11-20T05:20:29.888Z,32.4
2014-11-20T05:21:34.546Z,32.5
2014-11-20T05:22:39.173Z,32.6
2014-11-20T05:23:43.801Z,32.64
2014-11-20T05:24:48.428Z,32.67
2014-11-20T05:25:53.055Z,32.64
2014-11-20T05:26:57.682Z,32.73
2014-11-20T05:28:02.404Z,32.57
2014-11-20T05:29:07.031Z,32.7
2014-11-20T05:30:11.674Z,32.56
2014-11-20T05:31:16.301Z,32.6
2014-11-20T05:32:20.944Z,32.37
2014-11-20T05:33:25.574Z,32.51
2014-11-20T05:34:30.201Z,32.63
2014-11-20T05:35:34.828Z,32.57
2014-11-20T05:36:39.456Z,32.5
2014-11-20T05:37:44.083Z,32.43
2014-11-20T05:38:48.727Z,32.6
2014-11-20T05:39:53.354Z,32.47
2014-11-20T05:40:58.074Z,32.43
2014-11-20T05:42:02.858Z,32.5
2014-11-20T05:43:07.486Z,32.37
2014-11-20T05:44:12.113Z,32.64
2014-11-20T05:45:17.052Z,32.7
2014-11-20T05:46:21.632Z,32.56
2014-11-20T05:47:26.309Z,32.67
2014-11-20T05:48:31.967Z,32.71
2014-11-20T05:49:36.595Z,32.84
2014-11-20T05:50:41.238Z,32.9
2014-11-20T05:51:45.866Z,32.7
2014-11-20T05:52:50.493Z,32.77
2014-11-20T05:53:55.136Z,32.63
2014-11-20T05:54:59.763Z,32.57
2014-11-20T05:56:04.406Z,32.53
2014-11-20T05:57:09.033Z,32.57
2014-11-20T05:58:13.660Z,32.57
2014-11-20T05:59:18.304Z,32.51
2014-11-20T06:00:22.931Z,32.7
2014-11-20T06:01:27.561Z,32.7
2014-11-20T06:02:32.203Z,32.7
2014-11-20T06:03:36.830Z,32.71
2014-11-20T06:04:41.457Z,32.5
2014-11-20T06:05:46.085Z,32.57
2014-11-20T06:06:51.712Z,32.64
2014-11-20T06:07:56.340Z,32.84
2014-11-20T06:09:00.983Z,32.78
2014-11-20T06:10:05.626Z,32.81
2014-11-20T06:11:10.268Z,32.84
2014-11-20T06:12:14.895Z,32.74
2014-11-20T06:13:19.539Z,32.67
2014-11-20T06:14:24.166Z,32.54
2014-11-20T06:15:28.842Z,32.51
2014-11-20T06:16:33.485Z,32.57
2014-11-20T06:17:38.113Z,32.57
2014-11-20T06:18:42.740Z,32.64
2014-11-20T06:19:47.383Z,32.74
2014-11-20T06:20:52.026Z,32.5
2014-11-20T06:21:56.653Z,32.67
2014-11-20T06:23:01.390Z,32.77
2014-11-20T06:24:06.033Z,32.7
2014-11-20T06:25:10.660Z,32.71
2014-11-20T06:26:15.287Z,32.77
2014-11-20T06:27:19.930Z,32.81
2014-11-20T06:28:24.854Z,32.57
2014-11-20T06:29:29.500Z,32.84
2014-11-20T06:30:34.127Z,32.91
2014-11-20T06:31:38.754Z,32.71
2014-11-20T06:32:43.396Z,32.81
2014-11-20T06:33:48.040Z,32.74
2014-11-20T06:34:52.667Z,32.65
2014-11-20T06:35:57.294Z,32.78
2014-11-20T06:37:02.094Z,32.71
2014-11-20T06:38:06.737Z,32.64
2014-11-20T06:39:11.364Z,32.44
2014-11-20T06:40:16.007Z,32.5
2014-11-20T06:41:20.650Z,32.51
2014-11-20T06:42:25.339Z,32.64
2014-11-20T06:43:29.969Z,32.65
2014-11-20T06:44:34.768Z,32.74
2014-11-20T06:45:39.396Z,32.71
2014-11-20T06:46:44.023Z,32.71
2014-11-20T06:47:48.666Z,32.45
2014-11-20T06:48:53.309Z,32.58
2014-11-20T06:49:57.936Z,32.71
2014-11-20T06:51:02.580Z,32.78
2014-11-20T06:52:07.316Z,32.71
2014-11-20T06:53:12.256Z,32.84
2014-11-20T06:54:16.885Z,32.84
2014-11-20T06:55:21.527Z,32.91
2014-11-20T06:56:26.155Z,32.78
2014-11-20T06:57:30.783Z,32.57
2014-11-20T06:58:35.425Z,32.71
2014-11-20T06:59:40.051Z,32.64
2014-11-20T07:00:44.679Z,32.58
2014-11-20T07:01:49.306Z,32.71
2014-11-20T07:02:53.950Z,32.85
2014-11-20T07:03:58.595Z,32.91
2014-11-20T07:05:03.301Z,32.91
2014-11-20T07:06:07.928Z,32.98
2014-11-20T07:07:12.570Z,32.84
2014-11-20T07:08:17.198Z,32.84
2014-11-20T07:09:21.841Z,32.71
2014-11-20T07:10:26.468Z,32.75
2014-11-20T07:11:31.127Z,32.71
2014-11-20T07:12:35.770Z,32.75
2014-11-20T07:13:40.412Z,32.59
2014-11-20T07:14:44.352Z,32.51
2014-11-20T07:15:48.980Z,32.41
2014-11-20T07:16:53.622Z,32.58
2014-11-20T07:17:58.252Z,32.45
2014-11-20T07:19:02.895Z,32.58
2014-11-20T07:20:07.538Z,32.44
2014-11-20T07:21:12.181Z,32.51
2014-11-20T07:22:16.808Z,32.71
2014-11-20T07:23:21.436Z,32.78
2014-11-20T07:24:26.079Z,32.91
2014-11-20T07:25:30.722Z,32.51
2014-11-20T07:26:35.349Z,32.58
2014-11-20T07:27:40.101Z,32.71
2014-11-20T07:28:44.744Z,32.58
2014-11-20T07:29:49.371Z,32.78
2014-11-20T07:30:54.029Z,32.78
2014-11-20T07:31:58.658Z,32.64
2014-11-20T07:33:03.318Z,32.38
2014-11-20T07:34:07.945Z,32.64
2014-11-20T07:35:12.588Z,32.38
2014-11-20T07:36:17.231Z,32.58
2014-11-20T07:37:21.859Z,32.65
2014-11-20T07:38:26.502Z,32.38
2014-11-20T07:39:31.144Z,32.58
2014-11-20T07:40:35.771Z,32.58
2014-11-20T07:41:40.414Z,32.92
2014-11-20T07:42:45.042Z,32.84
2014-11-20T07:43:49.684Z,32.71
2014-11-20T07:44:54.343Z,32.72
2014-11-20T07:45:58.988Z,32.61
2014-11-20T07:47:03.631Z,32.72
2014-11-20T07:48:08.290Z,32.64
2014-11-20T07:49:13.917Z,32.65
2014-11-20T07:50:18.552Z,32.65
2014-11-20T07:51:23.207Z,32.51
2014-11-20T07:52:27.861Z,32.58
2014-11-20T07:53:32.500Z,32.38
2014-11-20T07:54:37.154Z,32.58
2014-11-20T07:55:41.851Z,32.55
2014-11-20T07:56:46.482Z,32.71
2014-11-20T07:57:50.425Z,32.75
2014-11-20T07:58:55.073Z,32.68
2014-11-20T07:59:59.708Z,32.71
2014-11-20T08:01:04.368Z,32.71
2014-11-20T08:02:08.997Z,32.72
2014-11-20T08:03:13.626Z,32.71
2014-11-20T08:04:18.255Z,32.68
2014-11-20T08:05:23.194Z,32.74
2014-11-20T08:06:27.822Z,32.78
2014-11-20T08:07:32.466Z,32.91
2014-11-20T08:08:37.093Z,32.77
2014-11-20T08:09:41.752Z,32.71
2014-11-20T08:10:46.380Z,32.78
2014-11-20T08:11:51.008Z,32.58
2014-11-20T08:12:55.638Z,32.58
2014-11-20T08:14:00.282Z,32.74
2014-11-20T08:15:04.940Z,32.72
2014-11-20T08:16:09.584Z,32.52
2014-11-20T08:17:14.225Z,32.57
2014-11-20T08:18:18.900Z,32.58
2014-11-20T08:19:23.560Z,32.57
2014-11-20T08:20:28.187Z,32.71
2014-11-20T08:21:32.814Z,32.5
2014-11-20T08:22:37.487Z,32.64
2014-11-20T08:23:42.131Z,32.51
2014-11-20T08:24:46.758Z,32.67
2014-11-20T08:25:51.401Z,32.75
2014-11-20T08:26:56.046Z,32.71
2014-11-20T08:28:00.690Z,32.54
2014-11-20T08:29:05.364Z,32.64
2014-11-20T08:30:09.991Z,32.61
2014-11-20T08:31:14.619Z,32.61
2014-11-20T08:32:19.246Z,32.48
2014-11-20T08:33:23.888Z,32.44
2014-11-20T08:34:28.515Z,32.43
2014-11-20T08:35:33.142Z,32.64
2014-11-20T08:36:37.785Z,32.7
2014-11-20T08:37:41.726Z,32.84
2014-11-20T08:38:46.399Z,32.67
2014-11-20T08:39:51.027Z,32.51
2014-11-20T08:40:55.669Z,32.65
2014-11-20T08:42:00.299Z,32.61
2014-11-20T08:43:04.942Z,32.78
2014-11-20T08:44:09.585Z,32.88
2014-11-20T08:45:14.213Z,32.71
2014-11-20T08:46:18.840Z,32.58
2014-11-20T08:47:23.483Z,32.71
2014-11-20T08:48:28.172Z,32.58
2014-11-20T08:49:32.113Z,32.61
2014-11-20T08:50:36.740Z,32.75
2014-11-20T08:51:41.383Z,32.45
2014-11-20T08:52:46.010Z,32.31
2014-11-20T08:53:50.638Z,32.51
2014-11-20T08:54:55.280Z,32.51
2014-11-20T08:55:59.926Z,32.65
2014-11-20T08:57:04.568Z,32.64
2014-11-20T08:58:09.212Z,32.72
2014-11-20T08:59:13.839Z,32.71
2014-11-20T09:00:18.482Z,32.71
2014-11-20T09:01:23.141Z,32.68
2014-11-20T09:02:27.768Z,32.65
2014-11-20T09:03:32.395Z,32.71
2014-11-20T09:04:37.069Z,32.78
2014-11-20T09:05:41.696Z,32.68
2014-11-20T09:06:46.323Z,32.58
2014-11-20T09:07:50.998Z,32.51
2014-11-20T09:08:55.640Z,32.65
2014-11-20T09:10:00.302Z,32.65
2014-11-20T09:11:04.929Z,32.85
2014-11-20T09:12:09.572Z,32.88
2014-11-20T09:13:14.277Z,32.92
2014-11-20T09:14:18.983Z,32.92
2014-11-20T09:15:23.610Z,32.72
2014-11-20T09:16:28.238Z,32.65
2014-11-20T09:17:32.881Z,32.65
2014-11-20T09:18:37.524Z,32.64
2014-11-20T09:19:42.167Z,32.72
2014-11-20T09:20:46.794Z,32.72
2014-11-20T09:21:52.421Z,32.65
2014-11-20T09:22:57.049Z,32.72
2014-11-20T09:24:01.677Z,32.52
2014-11-20T09:25:06.303Z,32.71
2014-11-20T09:26:10.930Z,32.78
2014-11-20T09:27:15.558Z,32.55
2014-11-20T09:28:20.185Z,32.55
2014-11-20T09:29:24.829Z,32.48
2014-11-20T09:30:29.458Z,32.78
2014-11-20T09:31:34.086Z,32.62
2014-11-20T09:32:38.744Z,32.74
2014-11-20T09:33:43.371Z,32.78
2014-11-20T09:34:48.014Z,32.78
2014-11-20T09:35:52.642Z,32.72
2014-11-20T09:36:57.301Z,32.92
2014-11-20T09:38:01.928Z,32.86
2014-11-20T09:39:06.555Z,32.78
2014-11-20T09:40:11.198Z,32.72
2014-11-20T09:41:15.840Z,32.79
2014-11-20T09:42:20.467Z,32.69
2014-11-20T09:43:25.095Z,32.65
2014-11-20T09:44:29.741Z,32.78
2014-11-20T09:45:34.680Z,32.71
2014-11-20T09:46:39.323Z,32.59
2014-11-20T09:47:43.967Z,32.72
2014-11-20T09:48:49.594Z,32.69
2014-11-20T09:49:54.236Z,32.78
2014-11-20T09:50:58.988Z,32.65
2014-11-20T09:52:03.944Z,32.59
2014-11-20T09:53:08.587Z,32.65
2014-11-20T09:54:13.214Z,32.75
2014-11-20T09:55:17.842Z,32.92
2014-11-20T09:56:22.782Z,32.72
2014-11-20T09:57:27.409Z,32.72
2014-11-20T09:58:32.054Z,32.72
2014-11-20T09:59:36.681Z,32.78
2014-11-20T10:00:41.340Z,32.66
2014-11-20T10:01:45.967Z,32.65
2014-11-20T10:02:50.642Z,32.58
2014-11-20T10:03:55.301Z,32.68
2014-11-20T10:05:00.021Z,32.45
2014-11-20T10:06:04.695Z,32.58
2014-11-20T10:07:09.385Z,32.52
2014-11-20T10:08:14.044Z,32.57
2014-11-20T10:09:18.686Z,32.65
2014-11-20T10:10:23.329Z,32.55
2014-11-20T10:11:27.988Z,32.51
2014-11-20T10:12:32.618Z,32.65
2014-11-20T10:13:37.244Z,32.65
2014-11-20T10:14:41.872Z,32.71
2014-11-20T10:15:46.546Z,32.52
2014-11-20T10:16:51.314Z,32.55
2014-11-20T10:17:55.942Z,32.68
2014-11-20T10:19:00.569Z,32.74
2014-11-20T10:20:05.212Z,32.62
2014-11-20T10:21:09.840Z,32.72
2014-11-20T10:22:14.482Z,32.58
2014-11-20T10:23:19.109Z,32.38
2014-11-20T10:24:23.736Z,32.65
2014-11-20T10:25:28.379Z,32.58
2014-11-20T10:26:33.010Z,32.61
2014-11-20T10:27:37.637Z,32.65
2014-11-20T10:28:42.264Z,32.71
2014-11-20T10:29:46.892Z,32.65
2014-11-20T10:30:51.534Z,32.51
2014-11-20T10:31:56.161Z,32.41
2014-11-20T10:33:00.804Z,32.48
2014-11-20T10:34:05.447Z,32.45
2014-11-20T10:35:10.106Z,32.65
2014-11-20T10:36:14.733Z,32.38
2014-11-20T10:37:20.376Z,32.51
2014-11-20T10:38:25.004Z,32.38
2014-11-20T10:39:29.634Z,32.38
2014-11-20T10:40:34.275Z,32.65
2014-11-20T10:41:38.903Z,32.58
2014-11-20T10:42:43.531Z,32.51
2014-11-20T10:43:48.189Z,32.61
2014-11-20T10:44:52.816Z,32.51
2014-11-20T10:45:57.460Z,32.38
2014-11-20T10:47:02.196Z,32.55
2014-11-20T10:48:06.855Z,32.45
2014-11-20T10:49:11.498Z,32.64
2014-11-20T10:50:16.125Z,32.58
2014-11-20T10:51:20.768Z,32.31
2014-11-20T10:52:25.426Z,32.58
2014-11-20T10:53:30.054Z,32.64
2014-11-20T10:54:34.697Z,32.75
2014-11-20T10:55:38.636Z,32.52
2014-11-20T10:56:43.282Z,32.58
2014-11-20T10:57:47.940Z,32.65
2014-11-20T10:58:52.567Z,32.58
2014-11-20T10:59:57.211Z,32.65
2014-11-20T11:01:01.947Z,32.51
2014-11-20T11:02:06.591Z,32.52
2014-11-20T11:03:11.233Z,32.72
2014-11-20T11:04:15.876Z,32.45
2014-11-20T11:05:20.503Z,32.38
2014-11-20T11:06:25.131Z,32.59
2014-11-20T11:07:29.758Z,32.45
2014-11-20T11:08:34.386Z,32.61
2014-11-20T11:09:39.013Z,32.72
2014-11-20T11:10:43.642Z,32.66
2014-11-20T11:11:48.270Z,32.39
2014-11-20T11:12:52.913Z,32.41
2014-11-20T11:13:57.541Z,32.59
2014-11-20T11:15:02.354Z,32.58
2014-11-20T11:16:06.997Z,32.38
2014-11-20T11:17:10.937Z,32.52
2014-11-20T11:18:15.580Z,32.51
2014-11-20T11:19:20.223Z,32.55
2014-11-20T11:20:24.851Z,32.65
2014-11-20T11:21:29.479Z,32.32
2014-11-20T11:22:34.121Z,31.52
2014-11-20T11:23:38.748Z,32.18
2014-11-20T11:24:43.425Z,32.28
2014-11-20T11:25:48.052Z,32.35
2014-11-20T11:26:52.679Z,32.5
2014-11-20T11:27:57.603Z,32.94
2014-11-20T11:29:02.372Z,33.49
2014-11-20T11:30:07.014Z,33.38
2014-11-20T11:31:11.641Z,34.42
2014-11-20T11:32:16.268Z,33.6
2014-11-20T11:33:20.927Z,32.16
2014-11-20T11:34:25.570Z,32.5
2014-11-20T11:35:30.198Z,32.58
2014-11-20T11:36:34.825Z,32.5
2014-11-20T11:37:39.452Z,33.11
2014-11-20T11:38:44.082Z,33.01
2014-11-20T11:39:48.725Z,32.81
2014-11-20T11:40:53.352Z,33.54
2014-11-20T11:41:57.994Z,33.61
2014-11-20T11:43:02.685Z,33.72
2014-11-20T11:44:07.312Z,33.82
2014-11-20T11:45:11.939Z,33.63
2014-11-20T11:46:16.567Z,33.96
2014-11-20T11:47:21.194Z,33.7
2014-11-20T11:48:25.869Z,33.73
2014-11-20T11:49:30.510Z,33.57
2014-11-20T11:50:35.138Z,33.84
2014-11-20T11:51:39.765Z,33.93
2014-11-20T11:52:44.395Z,33.31
2014-11-20T11:53:49.039Z,32.71
2014-11-20T11:54:53.681Z,32.27
2014-11-20T11:55:58.309Z,32.14
2014-11-20T11:57:02.951Z,31.93
2014-11-20T11:58:07.579Z,32.07
2014-11-20T11:59:12.205Z,31.94
2014-11-20T12:00:16.833Z,31.84
2014-11-20T12:01:21.461Z,31.61
2014-11-20T12:02:26.087Z,31.57
2014-11-20T12:03:30.715Z,32.01
2014-11-20T12:04:35.359Z,32.36
2014-11-20T12:05:39.986Z,32.8
2014-11-20T12:06:44.630Z,32.97
2014-11-20T12:07:49.257Z,33.02
2014-11-20T12:08:53.885Z,33.09
2014-11-20T12:09:58.528Z,33.08
2014-11-20T12:11:03.155Z,33.32
2014-11-20T12:12:07.799Z,33.66
2014-11-20T12:13:12.427Z,33.96
2014-11-20T12:14:17.068Z,33.92
2014-11-20T12:15:21.696Z,33.69
2014-11-20T12:16:26.339Z,33.79
2014-11-20T12:17:30.982Z,33.63
2014-11-20T12:18:35.641Z,33.63
2014-11-20T12:19:40.283Z,34.12
2014-11-20T12:20:44.929Z,33.58
2014-11-20T12:21:49.572Z,33.45
2014-11-20T12:22:54.200Z,33.43
2014-11-20T12:23:58.827Z,32.88
2014-11-20T12:25:03.469Z,32.68
2014-11-20T12:26:08.096Z,32.48
2014-11-20T12:27:12.724Z,32.35
2014-11-20T12:28:17.367Z,32.28
2014-11-20T12:29:22.291Z,32.32
2014-11-20T12:30:26.918Z,32.48
2014-11-20T12:31:31.560Z,32.59
2014-11-20T12:32:36.188Z,32.4
2014-11-20T12:33:40.832Z,32.7
2014-11-20T12:34:45.492Z,32.45
2014-11-20T12:35:50.119Z,32.14
2014-11-20T12:36:54.746Z,31.83
2014-11-20T12:37:59.420Z,31.91
2014-11-20T12:39:04.095Z,32.12
2014-11-20T12:40:08.739Z,31.91
2014-11-20T12:41:13.365Z,31.95
2014-11-20T12:42:18.008Z,32.13
2014-11-20T12:43:22.652Z,31.99
2014-11-20T12:44:27.278Z,31.79
2014-11-20T12:45:31.906Z,31.73
2014-11-20T12:46:36.549Z,31.59
2014-11-20T12:47:41.177Z,31.59
2014-11-20T12:48:45.806Z,32.22
2014-11-20T12:49:50.449Z,31.74
2014-11-20T12:50:55.076Z,31.81
2014-11-20T12:51:59.750Z,31.47
2014-11-20T12:53:04.394Z,31.41
2014-11-20T12:54:09.020Z,31.27
2014-11-20T12:55:13.648Z,31.27
2014-11-20T12:56:18.275Z,31.41
2014-11-20T12:57:22.917Z,31.41
2014-11-20T12:58:27.545Z,31.31
2014-11-20T12:59:32.172Z,31.39
2014-11-20T13:00:36.815Z,31.35
2014-11-20T13:01:41.474Z,31.35
2014-11-20T13:02:46.103Z,31.36
2014-11-20T13:03:50.731Z,31.36
2014-11-20T13:04:55.358Z,31.43
2014-11-20T13:05:59.985Z,31.43
2014-11-20T13:07:04.613Z,31.43
2014-11-20T13:08:09.240Z,31.5
2014-11-20T13:09:13.883Z,31.5
2014-11-20T13:10:18.511Z,31.57
2014-11-20T13:11:22.997Z,31.5
2014-11-20T13:12:27.624Z,31.57
2014-11-20T13:13:32.252Z,31.57
2014-11-20T13:14:36.879Z,31.58
2014-11-20T13:15:41.506Z,31.58
2014-11-20T13:16:46.135Z,31.99
2014-11-20T13:17:50.779Z,31.92
2014-11-20T13:18:55.406Z,31.92
2014-11-20T13:20:00.033Z,31.86
2014-11-20T13:21:04.770Z,31.86
2014-11-20T13:22:09.397Z,31.86
2014-11-20T13:23:14.024Z,31.96
2014-11-20T13:24:18.651Z,31.96
2014-11-20T13:25:23.592Z,31.93
2014-11-20T13:26:28.219Z,32.17
2014-11-20T13:27:32.861Z,32.13
2014-11-20T13:28:37.521Z,32.23
2014-11-20T13:29:42.164Z,32.13
2014-11-20T13:30:46.793Z,32.13
2014-11-20T13:31:51.468Z,32.07
2014-11-20T13:32:56.392Z,33.39
2014-11-20T13:34:01.331Z,32.75
2014-11-20T13:35:05.974Z,32.41
2014-11-20T13:36:10.632Z,32.41
2014-11-20T13:37:15.260Z,32.34
2014-11-20T13:38:19.887Z,32.48
2014-11-20T13:39:24.515Z,32.88
2014-11-20T13:40:29.158Z,32.19
2014-11-20T13:41:33.785Z,33.86
2014-11-20T13:42:38.412Z,33.46
2014-11-20T13:43:43.040Z,32.63
2014-11-20T13:44:47.685Z,32.3
2014-11-20T13:45:52.313Z,32.25
2014-11-20T13:46:56.955Z,32.23
2014-11-20T13:48:01.598Z,32.4
2014-11-20T13:49:06.226Z,32.37
2014-11-20T13:50:10.853Z,32.34
2014-11-20T13:51:15.480Z,32.24
2014-11-20T13:52:20.108Z,32.34
2014-11-20T13:53:25.734Z,32.28
2014-11-20T13:54:30.377Z,32.21